sensor_id;sensor_type;location;lat;lon;timestamp;temperature;humidity
53268;DHT22;39156;51.176;6.738;2023-12-14T00:01:21;8.60;86.40
53268;DHT22;39156;51.176;6.738;2023-12-14T00:03:47;8.60;86.40
53268;DHT22;39156;51.176;6.738;2023-12-14T00:06:12;8.60;86.40
53268;DHT22;39156;51.176;6.738;2023-12-14T00:08:39;8.60;86.50
53268;DHT22;39156;51.176;6.738;2023-12-14T00:13:35;8.60;86.60
53268;DHT22;39156;51.176;6.738;2023-12-14T00:16:00;8.60;86.60
53268;DHT22;39156;51.176;6.738;2023-12-14T00:18:26;8.50;86.60
53268;DHT22;39156;51.176;6.738;2023-12-14T00:20:52;8.50;86.60
53268;DHT22;39156;51.176;6.738;2023-12-14T00:23:19;8.50;86.60
53268;DHT22;39156;51.176;6.738;2023-12-14T00:25:45;8.50;86.80
53268;DHT22;39156;51.176;6.738;2023-12-14T00:28:10;8.50;86.90
53268;DHT22;39156;51.176;6.738;2023-12-14T00:30:36;8.50;87.00
53268;DHT22;39156;51.176;6.738;2023-12-14T00:33:02;8.50;87.00
53268;DHT22;39156;51.176;6.738;2023-12-14T00:35:27;8.60;87.20
53268;DHT22;39156;51.176;6.738;2023-12-14T00:37:53;8.50;87.10
53268;DHT22;39156;51.176;6.738;2023-12-14T00:40:18;8.40;87.20
53268;DHT22;39156;51.176;6.738;2023-12-14T00:42:44;8.40;87.20
53268;DHT22;39156;51.176;6.738;2023-12-14T00:45:10;8.40;87.30
53268;DHT22;39156;51.176;6.738;2023-12-14T00:47:35;8.30;87.40
53268;DHT22;39156;51.176;6.738;2023-12-14T00:50:01;8.30;87.30
53268;DHT22;39156;51.176;6.738;2023-12-14T00:52:27;8.40;87.50
53268;DHT22;39156;51.176;6.738;2023-12-14T00:54:53;8.40;87.50
53268;DHT22;39156;51.176;6.738;2023-12-14T00:57:18;8.30;87.50
53268;DHT22;39156;51.176;6.738;2023-12-14T00:59:44;8.40;87.60
53268;DHT22;39156;51.176;6.738;2023-12-14T01:02:09;8.30;87.60
53268;DHT22;39156;51.176;6.738;2023-12-14T01:04:35;8.30;88.30
53268;DHT22;39156;51.176;6.738;2023-12-14T01:07:01;8.30;87.90
53268;DHT22;39156;51.176;6.738;2023-12-14T01:09:26;8.30;88.00
53268;DHT22;39156;51.176;6.738;2023-12-14T01:11:52;8.40;88.00
53268;DHT22;39156;51.176;6.738;2023-12-14T01:14:18;8.30;88.00
53268;DHT22;39156;51.176;6.738;2023-12-14T01:16:43;8.40;88.20
53268;DHT22;39156;51.176;6.738;2023-12-14T01:19:09;8.40;88.20
53268;DHT22;39156;51.176;6.738;2023-12-14T01:21:34;8.40;88.20
53268;DHT22;39156;51.176;6.738;2023-12-14T01:24:00;8.40;88.40
53268;DHT22;39156;51.176;6.738;2023-12-14T01:26:26;8.40;88.40
53268;DHT22;39156;51.176;6.738;2023-12-14T01:28:52;8.30;88.40
53268;DHT22;39156;51.176;6.738;2023-12-14T01:31:18;8.40;88.40
53268;DHT22;39156;51.176;6.738;2023-12-14T01:33:44;8.30;88.40
53268;DHT22;39156;51.176;6.738;2023-12-14T01:36:11;8.30;88.60
53268;DHT22;39156;51.176;6.738;2023-12-14T01:38:37;8.20;88.50
53268;DHT22;39156;51.176;6.738;2023-12-14T01:41:03;8.20;88.60
53268;DHT22;39156;51.176;6.738;2023-12-14T01:43:29;8.20;88.70
53268;DHT22;39156;51.176;6.738;2023-12-14T01:45:54;8.10;89.00
53268;DHT22;39156;51.176;6.738;2023-12-14T01:48:20;8.10;88.80
53268;DHT22;39156;51.176;6.738;2023-12-14T01:50:45;8.10;88.90
53268;DHT22;39156;51.176;6.738;2023-12-14T01:53:11;8.00;88.90
53268;DHT22;39156;51.176;6.738;2023-12-14T01:55:37;8.00;88.90
53268;DHT22;39156;51.176;6.738;2023-12-14T01:58:02;8.10;89.00
53268;DHT22;39156;51.176;6.738;2023-12-14T02:03:23;8.00;89.00
53268;DHT22;39156;51.176;6.738;2023-12-14T02:05:48;7.90;88.90
53268;DHT22;39156;51.176;6.738;2023-12-14T02:08:14;7.90;89.00
53268;DHT22;39156;51.176;6.738;2023-12-14T02:10:39;7.90;89.00
53268;DHT22;39156;51.176;6.738;2023-12-14T02:13:05;7.90;89.00
53268;DHT22;39156;51.176;6.738;2023-12-14T02:15:31;7.90;89.00
53268;DHT22;39156;51.176;6.738;2023-12-14T02:17:56;7.80;89.00
53268;DHT22;39156;51.176;6.738;2023-12-14T02:20:22;7.80;88.90
53268;DHT22;39156;51.176;6.738;2023-12-14T02:22:48;7.70;89.00
53268;DHT22;39156;51.176;6.738;2023-12-14T02:25:15;7.70;89.00
53268;DHT22;39156;51.176;6.738;2023-12-14T02:27:41;7.70;89.00
53268;DHT22;39156;51.176;6.738;2023-12-14T02:30:07;7.80;89.10
53268;DHT22;39156;51.176;6.738;2023-12-14T02:32:33;7.60;89.00
53268;DHT22;39156;51.176;6.738;2023-12-14T02:34:58;7.70;89.00
53268;DHT22;39156;51.176;6.738;2023-12-14T02:37:24;7.70;89.10
53268;DHT22;39156;51.176;6.738;2023-12-14T02:39:50;7.70;89.00
53268;DHT22;39156;51.176;6.738;2023-12-14T02:42:16;7.60;88.90
53268;DHT22;39156;51.176;6.738;2023-12-14T02:44:41;7.60;88.90
53268;DHT22;39156;51.176;6.738;2023-12-14T02:47:07;7.70;89.00
53268;DHT22;39156;51.176;6.738;2023-12-14T02:49:32;7.70;89.00
53268;DHT22;39156;51.176;6.738;2023-12-14T02:51:58;7.50;88.80
53268;DHT22;39156;51.176;6.738;2023-12-14T02:54:24;7.60;88.90
53268;DHT22;39156;51.176;6.738;2023-12-14T02:56:50;7.70;89.00
53268;DHT22;39156;51.176;6.738;2023-12-14T02:59:15;7.60;88.90
53268;DHT22;39156;51.176;6.738;2023-12-14T03:01:41;7.60;88.90
53268;DHT22;39156;51.176;6.738;2023-12-14T03:04:07;7.50;88.80
53268;DHT22;39156;51.176;6.738;2023-12-14T03:06:33;7.60;88.80
53268;DHT22;39156;51.176;6.738;2023-12-14T03:08:59;7.50;88.80
53268;DHT22;39156;51.176;6.738;2023-12-14T03:11:25;7.50;88.80
53268;DHT22;39156;51.176;6.738;2023-12-14T03:13:51;7.50;88.80
53268;DHT22;39156;51.176;6.738;2023-12-14T03:16:17;7.50;88.80
53268;DHT22;39156;51.176;6.738;2023-12-14T03:18:43;7.40;89.40
53268;DHT22;39156;51.176;6.738;2023-12-14T03:21:09;7.50;88.90
53268;DHT22;39156;51.176;6.738;2023-12-14T03:23:35;7.40;88.80
53268;DHT22;39156;51.176;6.738;2023-12-14T03:26:00;7.40;88.80
53268;DHT22;39156;51.176;6.738;2023-12-14T03:28:27;7.30;88.70
53268;DHT22;39156;51.176;6.738;2023-12-14T03:30:52;7.30;88.70
53268;DHT22;39156;51.176;6.738;2023-12-14T03:33:18;7.20;88.70
53268;DHT22;39156;51.176;6.738;2023-12-14T03:35:44;7.10;88.70
53268;DHT22;39156;51.176;6.738;2023-12-14T03:38:13;7.30;88.70
53268;DHT22;39156;51.176;6.738;2023-12-14T03:40:38;7.20;88.70
53268;DHT22;39156;51.176;6.738;2023-12-14T03:43:04;7.20;88.80
53268;DHT22;39156;51.176;6.738;2023-12-14T03:45:30;7.10;88.80
53268;DHT22;39156;51.176;6.738;2023-12-14T03:47:56;7.00;88.80
53268;DHT22;39156;51.176;6.738;2023-12-14T03:50:22;7.00;88.80
53268;DHT22;39156;51.176;6.738;2023-12-14T03:52:47;7.10;88.90
53268;DHT22;39156;51.176;6.738;2023-12-14T03:55:13;7.10;89.00
53268;DHT22;39156;51.176;6.738;2023-12-14T03:57:40;7.10;88.90
53268;DHT22;39156;51.176;6.738;2023-12-14T04:00:10;7.00;88.90
53268;DHT22;39156;51.176;6.738;2023-12-14T04:02:36;7.00;88.90
53268;DHT22;39156;51.176;6.738;2023-12-14T04:05:02;7.00;88.90
53268;DHT22;39156;51.176;6.738;2023-12-14T04:07:27;6.90;88.80
53268;DHT22;39156;51.176;6.738;2023-12-14T04:09:53;6.90;88.80
53268;DHT22;39156;51.176;6.738;2023-12-14T04:12:18;6.90;88.80
53268;DHT22;39156;51.176;6.738;2023-12-14T04:14:45;6.90;88.80
53268;DHT22;39156;51.176;6.738;2023-12-14T04:17:11;6.80;88.80
53268;DHT22;39156;51.176;6.738;2023-12-14T04:19:38;6.90;88.90
53268;DHT22;39156;51.176;6.738;2023-12-14T04:22:04;6.90;88.90
53268;DHT22;39156;51.176;6.738;2023-12-14T04:24:29;6.90;88.90
53268;DHT22;39156;51.176;6.738;2023-12-14T04:26:55;6.80;88.70
53268;DHT22;39156;51.176;6.738;2023-12-14T04:29:21;6.90;88.80
53268;DHT22;39156;51.176;6.738;2023-12-14T04:31:47;6.80;88.70
53268;DHT22;39156;51.176;6.738;2023-12-14T04:34:12;6.90;88.80
53268;DHT22;39156;51.176;6.738;2023-12-14T04:36:41;7.00;88.80
53268;DHT22;39156;51.176;6.738;2023-12-14T04:39:07;6.80;88.80
53268;DHT22;39156;51.176;6.738;2023-12-14T04:41:33;6.90;88.90
53268;DHT22;39156;51.176;6.738;2023-12-14T04:43:59;6.90;88.90
53268;DHT22;39156;51.176;6.738;2023-12-14T04:46:24;6.90;88.90
53268;DHT22;39156;51.176;6.738;2023-12-14T04:48:50;6.80;88.80
53268;DHT22;39156;51.176;6.738;2023-12-14T04:51:15;6.90;88.80
53268;DHT22;39156;51.176;6.738;2023-12-14T04:53:41;6.90;88.80
53268;DHT22;39156;51.176;6.738;2023-12-14T04:56:10;6.90;88.70
53268;DHT22;39156;51.176;6.738;2023-12-14T04:58:37;6.70;88.70
53268;DHT22;39156;51.176;6.738;2023-12-14T05:01:07;6.80;88.70
53268;DHT22;39156;51.176;6.738;2023-12-14T05:03:34;6.80;88.70
53268;DHT22;39156;51.176;6.738;2023-12-14T05:06:00;6.70;88.80
53268;DHT22;39156;51.176;6.738;2023-12-14T05:08:26;6.70;88.80
53268;DHT22;39156;51.176;6.738;2023-12-14T05:10:51;6.60;88.80
53268;DHT22;39156;51.176;6.738;2023-12-14T05:13:17;6.60;88.90
53268;DHT22;39156;51.176;6.738;2023-12-14T05:15:42;6.70;88.90
53268;DHT22;39156;51.176;6.738;2023-12-14T05:18:08;6.60;88.90
53268;DHT22;39156;51.176;6.738;2023-12-14T05:20:34;6.70;88.90
53268;DHT22;39156;51.176;6.738;2023-12-14T05:23:00;6.60;89.00
53268;DHT22;39156;51.176;6.738;2023-12-14T05:25:25;6.60;88.90
53268;DHT22;39156;51.176;6.738;2023-12-14T05:27:51;6.70;88.90
53268;DHT22;39156;51.176;6.738;2023-12-14T05:30:17;6.60;88.90
53268;DHT22;39156;51.176;6.738;2023-12-14T05:32:43;6.60;88.90
53268;DHT22;39156;51.176;6.738;2023-12-14T05:35:09;6.60;88.90
53268;DHT22;39156;51.176;6.738;2023-12-14T05:37:35;6.60;88.90
53268;DHT22;39156;51.176;6.738;2023-12-14T05:40:01;6.60;88.90
53268;DHT22;39156;51.176;6.738;2023-12-14T05:42:27;6.60;88.90
53268;DHT22;39156;51.176;6.738;2023-12-14T05:44:53;6.60;88.90
53268;DHT22;39156;51.176;6.738;2023-12-14T05:47:19;6.70;89.00
53268;DHT22;39156;51.176;6.738;2023-12-14T05:49:45;6.60;88.90
53268;DHT22;39156;51.176;6.738;2023-12-14T05:52:10;6.60;88.80
53268;DHT22;39156;51.176;6.738;2023-12-14T05:54:36;6.60;88.80
53268;DHT22;39156;51.176;6.738;2023-12-14T05:57:03;6.60;88.80
53268;DHT22;39156;51.176;6.738;2023-12-14T05:59:29;6.70;88.80
53268;DHT22;39156;51.176;6.738;2023-12-14T06:01:57;6.70;88.80
53268;DHT22;39156;51.176;6.738;2023-12-14T06:04:23;6.60;88.80
53268;DHT22;39156;51.176;6.738;2023-12-14T06:06:49;6.60;88.70
53268;DHT22;39156;51.176;6.738;2023-12-14T06:09:15;6.70;89.40
53268;DHT22;39156;51.176;6.738;2023-12-14T06:11:40;6.60;88.80
53268;DHT22;39156;51.176;6.738;2023-12-14T06:14:06;6.70;88.80
53268;DHT22;39156;51.176;6.738;2023-12-14T06:16:32;6.60;88.80
53268;DHT22;39156;51.176;6.738;2023-12-14T06:18:57;6.80;88.80
53268;DHT22;39156;51.176;6.738;2023-12-14T06:21:23;6.80;88.90
53268;DHT22;39156;51.176;6.738;2023-12-14T06:23:53;6.70;88.80
53268;DHT22;39156;51.176;6.738;2023-12-14T06:26:19;6.70;88.80
53268;DHT22;39156;51.176;6.738;2023-12-14T06:28:45;6.70;88.70
53268;DHT22;39156;51.176;6.738;2023-12-14T06:31:14;6.70;88.70
53268;DHT22;39156;51.176;6.738;2023-12-14T06:33:40;6.80;88.80
53268;DHT22;39156;51.176;6.738;2023-12-14T06:36:07;6.70;88.70
53268;DHT22;39156;51.176;6.738;2023-12-14T06:38:33;6.60;88.60
53268;DHT22;39156;51.176;6.738;2023-12-14T06:41:00;6.70;88.70
53268;DHT22;39156;51.176;6.738;2023-12-14T06:43:27;6.80;88.70
53268;DHT22;39156;51.176;6.738;2023-12-14T06:45:53;6.80;88.70
53268;DHT22;39156;51.176;6.738;2023-12-14T06:48:19;6.70;88.50
53268;DHT22;39156;51.176;6.738;2023-12-14T06:50:46;6.70;88.50
53268;DHT22;39156;51.176;6.738;2023-12-14T06:53:11;6.70;88.40
53268;DHT22;39156;51.176;6.738;2023-12-14T06:55:37;6.60;88.40
53268;DHT22;39156;51.176;6.738;2023-12-14T06:58:03;6.60;88.40
53268;DHT22;39156;51.176;6.738;2023-12-14T07:00:28;6.70;88.50
53268;DHT22;39156;51.176;6.738;2023-12-14T07:02:56;6.60;88.50
53268;DHT22;39156;51.176;6.738;2023-12-14T07:05:22;6.60;88.40
53268;DHT22;39156;51.176;6.738;2023-12-14T07:07:48;6.70;88.50
53268;DHT22;39156;51.176;6.738;2023-12-14T07:10:13;6.70;89.10
53268;DHT22;39156;51.176;6.738;2023-12-14T07:12:39;6.70;88.50
53268;DHT22;39156;51.176;6.738;2023-12-14T07:15:05;6.70;88.40
53268;DHT22;39156;51.176;6.738;2023-12-14T07:17:31;6.70;88.50
53268;DHT22;39156;51.176;6.738;2023-12-14T07:19:57;6.60;88.40
53268;DHT22;39156;51.176;6.738;2023-12-14T07:22:22;6.70;88.40
53268;DHT22;39156;51.176;6.738;2023-12-14T07:24:48;6.70;88.30
53268;DHT22;39156;51.176;6.738;2023-12-14T07:27:13;6.70;88.30
53268;DHT22;39156;51.176;6.738;2023-12-14T07:29:39;6.80;88.30
53268;DHT22;39156;51.176;6.738;2023-12-14T07:32:04;6.70;88.20
53268;DHT22;39156;51.176;6.738;2023-12-14T07:34:30;6.70;88.20
53268;DHT22;39156;51.176;6.738;2023-12-14T07:36:56;6.80;88.20
53268;DHT22;39156;51.176;6.738;2023-12-14T07:39:21;6.70;88.70
53268;DHT22;39156;51.176;6.738;2023-12-14T07:41:47;6.80;88.10
53268;DHT22;39156;51.176;6.738;2023-12-14T07:44:13;6.80;88.00
53268;DHT22;39156;51.176;6.738;2023-12-14T07:46:38;6.60;88.50
53268;DHT22;39156;51.176;6.738;2023-12-14T07:49:06;6.60;87.90
53268;DHT22;39156;51.176;6.738;2023-12-14T07:51:32;6.60;87.90
53268;DHT22;39156;51.176;6.738;2023-12-14T07:53:58;6.50;87.90
53268;DHT22;39156;51.176;6.738;2023-12-14T07:56:23;6.60;87.90
53268;DHT22;39156;51.176;6.738;2023-12-14T07:58:52;6.50;88.50
53268;DHT22;39156;51.176;6.738;2023-12-14T08:01:18;6.50;88.00
53268;DHT22;39156;51.176;6.738;2023-12-14T08:03:44;6.50;88.00
53268;DHT22;39156;51.176;6.738;2023-12-14T08:06:09;6.30;87.90
53268;DHT22;39156;51.176;6.738;2023-12-14T08:08:35;6.40;87.90
53268;DHT22;39156;51.176;6.738;2023-12-14T08:11:03;6.40;87.80
53268;DHT22;39156;51.176;6.738;2023-12-14T08:13:29;6.30;87.80
53268;DHT22;39156;51.176;6.738;2023-12-14T08:15:55;6.40;87.90
53268;DHT22;39156;51.176;6.738;2023-12-14T08:18:20;6.30;87.90
53268;DHT22;39156;51.176;6.738;2023-12-14T08:20:46;6.30;87.90
53268;DHT22;39156;51.176;6.738;2023-12-14T08:23:12;6.30;87.90
53268;DHT22;39156;51.176;6.738;2023-12-14T08:25:37;6.20;87.80
53268;DHT22;39156;51.176;6.738;2023-12-14T08:28:03;6.20;87.80
53268;DHT22;39156;51.176;6.738;2023-12-14T08:30:29;6.10;87.90
53268;DHT22;39156;51.176;6.738;2023-12-14T08:32:54;6.10;87.90
53268;DHT22;39156;51.176;6.738;2023-12-14T08:35:20;6.00;87.80
53268;DHT22;39156;51.176;6.738;2023-12-14T08:37:46;6.00;87.90
53268;DHT22;39156;51.176;6.738;2023-12-14T08:40:12;6.00;87.90
53268;DHT22;39156;51.176;6.738;2023-12-14T08:42:38;6.00;88.00
53268;DHT22;39156;51.176;6.738;2023-12-14T08:45:03;5.90;88.10
53268;DHT22;39156;51.176;6.738;2023-12-14T08:47:29;5.90;88.30
53268;DHT22;39156;51.176;6.738;2023-12-14T08:49:55;5.90;88.20
53268;DHT22;39156;51.176;6.738;2023-12-14T08:52:20;5.90;88.30
53268;DHT22;39156;51.176;6.738;2023-12-14T08:54:46;5.90;88.40
53268;DHT22;39156;51.176;6.738;2023-12-14T08:57:12;5.90;88.40
53268;DHT22;39156;51.176;6.738;2023-12-14T08:59:37;5.90;88.40
53268;DHT22;39156;51.176;6.738;2023-12-14T09:02:03;5.80;88.40
53268;DHT22;39156;51.176;6.738;2023-12-14T09:04:28;5.90;88.50
53268;DHT22;39156;51.176;6.738;2023-12-14T09:06:54;6.00;88.50
53268;DHT22;39156;51.176;6.738;2023-12-14T09:09:20;5.90;88.40
53268;DHT22;39156;51.176;6.738;2023-12-14T09:11:46;5.90;88.40
53268;DHT22;39156;51.176;6.738;2023-12-14T09:14:11;6.00;88.50
53268;DHT22;39156;51.176;6.738;2023-12-14T09:16:37;5.90;88.40
53268;DHT22;39156;51.176;6.738;2023-12-14T09:19:03;6.10;88.50
53268;DHT22;39156;51.176;6.738;2023-12-14T09:21:28;5.90;88.30
53268;DHT22;39156;51.176;6.738;2023-12-14T09:23:54;5.90;88.40
53268;DHT22;39156;51.176;6.738;2023-12-14T09:26:19;6.00;88.50
53268;DHT22;39156;51.176;6.738;2023-12-14T09:28:47;5.90;88.40
53268;DHT22;39156;51.176;6.738;2023-12-14T09:31:13;5.90;88.40
53268;DHT22;39156;51.176;6.738;2023-12-14T09:33:41;5.90;88.40
53268;DHT22;39156;51.176;6.738;2023-12-14T09:36:06;5.90;88.30
53268;DHT22;39156;51.176;6.738;2023-12-14T09:38:32;5.90;88.40
53268;DHT22;39156;51.176;6.738;2023-12-14T09:40:58;6.00;88.40
53268;DHT22;39156;51.176;6.738;2023-12-14T09:43:23;5.90;88.30
53268;DHT22;39156;51.176;6.738;2023-12-14T09:45:52;5.90;88.30
53268;DHT22;39156;51.176;6.738;2023-12-14T09:48:20;6.00;88.40
53268;DHT22;39156;51.176;6.738;2023-12-14T09:50:47;6.00;88.40
53268;DHT22;39156;51.176;6.738;2023-12-14T09:53:14;6.00;88.40
53268;DHT22;39156;51.176;6.738;2023-12-14T09:55:40;6.20;88.50
53268;DHT22;39156;51.176;6.738;2023-12-14T09:58:05;6.10;88.50
53268;DHT22;39156;51.176;6.738;2023-12-14T10:00:34;6.20;88.50
53268;DHT22;39156;51.176;6.738;2023-12-14T10:05:45;6.20;88.50
53268;DHT22;39156;51.176;6.738;2023-12-14T10:08:12;6.30;88.40
53268;DHT22;39156;51.176;6.738;2023-12-14T10:10:37;6.30;88.40
53268;DHT22;39156;51.176;6.738;2023-12-14T10:13:03;6.30;88.30
53268;DHT22;39156;51.176;6.738;2023-12-14T10:15:29;6.30;88.20
53268;DHT22;39156;51.176;6.738;2023-12-14T10:17:54;6.30;88.10
53268;DHT22;39156;51.176;6.738;2023-12-14T10:20:21;6.30;88.10
53268;DHT22;39156;51.176;6.738;2023-12-14T10:22:51;6.40;88.20
53268;DHT22;39156;51.176;6.738;2023-12-14T10:25:18;6.40;88.20
53268;DHT22;39156;51.176;6.738;2023-12-14T10:27:47;6.40;88.20
53268;DHT22;39156;51.176;6.738;2023-12-14T10:30:14;6.30;88.00
53268;DHT22;39156;51.176;6.738;2023-12-14T10:32:40;6.40;87.80
53268;DHT22;39156;51.176;6.738;2023-12-14T10:35:07;6.30;87.60
53268;DHT22;39156;51.176;6.738;2023-12-14T10:37:33;6.30;87.50
53268;DHT22;39156;51.176;6.738;2023-12-14T10:40:03;6.30;87.50
53268;DHT22;39156;51.176;6.738;2023-12-14T10:42:31;6.30;87.60
53268;DHT22;39156;51.176;6.738;2023-12-14T10:44:57;6.30;87.50
53268;DHT22;39156;51.176;6.738;2023-12-14T10:47:24;6.30;87.40
53268;DHT22;39156;51.176;6.738;2023-12-14T10:49:50;6.30;87.30
53268;DHT22;39156;51.176;6.738;2023-12-14T10:52:16;6.20;87.20
53268;DHT22;39156;51.176;6.738;2023-12-14T10:54:42;6.20;87.30
53268;DHT22;39156;51.176;6.738;2023-12-14T10:57:09;6.20;87.30
53268;DHT22;39156;51.176;6.738;2023-12-14T10:59:35;6.10;87.40
53268;DHT22;39156;51.176;6.738;2023-12-14T11:02:00;6.20;87.40
53268;DHT22;39156;51.176;6.738;2023-12-14T11:04:45;6.10;87.40
53268;DHT22;39156;51.176;6.738;2023-12-14T11:08:07;6.10;87.50
53268;DHT22;39156;51.176;6.738;2023-12-14T11:10:08;6.10;87.50
53268;DHT22;39156;51.176;6.738;2023-12-14T11:12:34;6.20;87.60
53268;DHT22;39156;51.176;6.738;2023-12-14T11:15:00;6.10;87.70
53268;DHT22;39156;51.176;6.738;2023-12-14T11:17:30;6.20;87.90
53268;DHT22;39156;51.176;6.738;2023-12-14T11:19:56;6.30;87.90
53268;DHT22;39156;51.176;6.738;2023-12-14T11:22:23;6.20;87.80
53268;DHT22;39156;51.176;6.738;2023-12-14T11:24:50;6.20;87.90
53268;DHT22;39156;51.176;6.738;2023-12-14T11:27:19;6.40;87.90
53268;DHT22;39156;51.176;6.738;2023-12-14T11:29:45;6.40;88.00
53268;DHT22;39156;51.176;6.738;2023-12-14T11:32:13;6.40;87.80
53268;DHT22;39156;51.176;6.738;2023-12-14T11:34:39;6.30;87.70
53268;DHT22;39156;51.176;6.738;2023-12-14T11:37:05;6.40;87.70
53268;DHT22;39156;51.176;6.738;2023-12-14T11:39:31;6.30;87.50
53268;DHT22;39156;51.176;6.738;2023-12-14T11:42:03;6.40;87.60
53268;DHT22;39156;51.176;6.738;2023-12-14T11:44:32;6.40;87.50
53268;DHT22;39156;51.176;6.738;2023-12-14T11:46:57;6.40;87.40
53268;DHT22;39156;51.176;6.738;2023-12-14T11:49:24;6.40;87.40
53268;DHT22;39156;51.176;6.738;2023-12-14T11:51:52;6.40;87.40
53268;DHT22;39156;51.176;6.738;2023-12-14T11:54:18;6.50;87.50
53268;DHT22;39156;51.176;6.738;2023-12-14T11:56:45;6.40;87.50
53268;DHT22;39156;51.176;6.738;2023-12-14T11:59:12;6.50;87.50
53268;DHT22;39156;51.176;6.738;2023-12-14T12:01:37;6.60;87.60
53268;DHT22;39156;51.176;6.738;2023-12-14T12:04:09;6.60;87.50
53268;DHT22;39156;51.176;6.738;2023-12-14T12:06:38;6.60;87.50
53268;DHT22;39156;51.176;6.738;2023-12-14T12:09:04;6.60;87.50
53268;DHT22;39156;51.176;6.738;2023-12-14T12:11:33;6.60;87.30
53268;DHT22;39156;51.176;6.738;2023-12-14T12:13:59;6.70;87.30
53268;DHT22;39156;51.176;6.738;2023-12-14T12:16:25;6.70;87.20
53268;DHT22;39156;51.176;6.738;2023-12-14T12:18:51;6.70;87.20
53268;DHT22;39156;51.176;6.738;2023-12-14T12:21:16;6.60;87.20
53268;DHT22;39156;51.176;6.738;2023-12-14T12:23:42;6.70;87.20
53268;DHT22;39156;51.176;6.738;2023-12-14T12:26:08;6.60;87.10
53268;DHT22;39156;51.176;6.738;2023-12-14T12:28:34;6.60;87.10
53268;DHT22;39156;51.176;6.738;2023-12-14T12:30:59;6.60;87.00
53268;DHT22;39156;51.176;6.738;2023-12-14T12:33:25;6.70;87.00
53268;DHT22;39156;51.176;6.738;2023-12-14T12:35:51;6.50;86.80
53268;DHT22;39156;51.176;6.738;2023-12-14T12:38:17;6.50;86.70
53268;DHT22;39156;51.176;6.738;2023-12-14T12:40:44;6.40;86.70
53268;DHT22;39156;51.176;6.738;2023-12-14T12:43:09;6.50;86.70
53268;DHT22;39156;51.176;6.738;2023-12-14T12:45:35;6.50;86.90
53268;DHT22;39156;51.176;6.738;2023-12-14T12:48:01;6.40;86.90
53268;DHT22;39156;51.176;6.738;2023-12-14T12:50:32;6.30;87.00
53268;DHT22;39156;51.176;6.738;2023-12-14T12:52:58;6.30;87.00
53268;DHT22;39156;51.176;6.738;2023-12-14T12:55:23;6.30;87.00
53268;DHT22;39156;51.176;6.738;2023-12-14T12:57:49;6.40;87.10
53268;DHT22;39156;51.176;6.738;2023-12-14T13:00:14;6.40;87.00
53268;DHT22;39156;51.176;6.738;2023-12-14T13:02:41;6.40;87.10
53268;DHT22;39156;51.176;6.738;2023-12-14T13:05:08;6.40;87.10
53268;DHT22;39156;51.176;6.738;2023-12-14T13:07:34;6.30;87.10
53268;DHT22;39156;51.176;6.738;2023-12-14T13:10:01;6.40;87.10
53268;DHT22;39156;51.176;6.738;2023-12-14T13:12:29;6.40;87.60
53268;DHT22;39156;51.176;6.738;2023-12-14T13:14:55;6.40;87.00
53268;DHT22;39156;51.176;6.738;2023-12-14T13:17:20;6.40;87.60
53268;DHT22;39156;51.176;6.738;2023-12-14T13:19:46;6.50;87.00
53268;DHT22;39156;51.176;6.738;2023-12-14T13:22:12;6.40;86.80
53268;DHT22;39156;51.176;6.738;2023-12-14T13:24:38;6.70;87.00
53268;DHT22;39156;51.176;6.738;2023-12-14T13:27:03;6.30;86.80
53268;DHT22;39156;51.176;6.738;2023-12-14T13:29:30;6.40;86.80
53268;DHT22;39156;51.176;6.738;2023-12-14T13:31:57;6.40;86.70
53268;DHT22;39156;51.176;6.738;2023-12-14T13:34:22;6.40;86.60
53268;DHT22;39156;51.176;6.738;2023-12-14T13:36:48;6.40;86.60
53268;DHT22;39156;51.176;6.738;2023-12-14T13:39:14;6.40;86.70
53268;DHT22;39156;51.176;6.738;2023-12-14T13:41:40;6.30;86.50
53268;DHT22;39156;51.176;6.738;2023-12-14T13:44:06;6.30;86.20
53268;DHT22;39156;51.176;6.738;2023-12-14T13:46:31;6.20;86.10
53268;DHT22;39156;51.176;6.738;2023-12-14T13:48:57;6.30;86.10
53268;DHT22;39156;51.176;6.738;2023-12-14T13:51:23;6.20;86.10
53268;DHT22;39156;51.176;6.738;2023-12-14T13:53:48;6.10;86.00
53268;DHT22;39156;51.176;6.738;2023-12-14T13:56:14;6.10;86.10
53268;DHT22;39156;51.176;6.738;2023-12-14T13:58:39;6.00;86.00
53268;DHT22;39156;51.176;6.738;2023-12-14T14:01:05;5.90;86.00
53268;DHT22;39156;51.176;6.738;2023-12-14T14:03:36;5.90;86.00
53268;DHT22;39156;51.176;6.738;2023-12-14T14:06:05;5.90;86.10
53268;DHT22;39156;51.176;6.738;2023-12-14T14:08:31;5.90;86.20
53268;DHT22;39156;51.176;6.738;2023-12-14T14:10:57;5.80;86.20
53268;DHT22;39156;51.176;6.738;2023-12-14T14:13:25;5.70;86.40
53268;DHT22;39156;51.176;6.738;2023-12-14T14:15:51;5.80;86.60
53268;DHT22;39156;51.176;6.738;2023-12-14T14:18:17;5.70;86.60
53268;DHT22;39156;51.176;6.738;2023-12-14T14:20:42;5.70;86.60
53268;DHT22;39156;51.176;6.738;2023-12-14T14:23:08;5.60;86.60
53268;DHT22;39156;51.176;6.738;2023-12-14T14:25:33;5.60;86.70
53268;DHT22;39156;51.176;6.738;2023-12-14T14:27:59;5.80;86.90
53268;DHT22;39156;51.176;6.738;2023-12-14T14:30:25;5.80;86.90
53268;DHT22;39156;51.176;6.738;2023-12-14T14:32:51;5.70;86.90
53268;DHT22;39156;51.176;6.738;2023-12-14T14:35:17;5.80;86.90
53268;DHT22;39156;51.176;6.738;2023-12-14T14:37:43;5.80;87.40
53268;DHT22;39156;51.176;6.738;2023-12-14T14:40:13;6.00;86.80
53268;DHT22;39156;51.176;6.738;2023-12-14T14:42:40;5.90;86.70
53268;DHT22;39156;51.176;6.738;2023-12-14T14:45:09;6.00;86.70
53268;DHT22;39156;51.176;6.738;2023-12-14T14:47:35;6.00;86.60
53268;DHT22;39156;51.176;6.738;2023-12-14T14:50:01;6.00;86.40
53268;DHT22;39156;51.176;6.738;2023-12-14T14:52:32;6.10;86.40
53268;DHT22;39156;51.176;6.738;2023-12-14T14:54:58;6.20;86.40
53268;DHT22;39156;51.176;6.738;2023-12-14T14:57:24;6.10;86.50
53268;DHT22;39156;51.176;6.738;2023-12-14T14:59:49;6.20;86.50
53268;DHT22;39156;51.176;6.738;2023-12-14T15:02:16;6.20;86.30
53268;DHT22;39156;51.176;6.738;2023-12-14T15:04:41;6.20;86.20
53268;DHT22;39156;51.176;6.738;2023-12-14T15:07:07;6.30;86.40
53268;DHT22;39156;51.176;6.738;2023-12-14T15:09:33;6.10;86.30
53268;DHT22;39156;51.176;6.738;2023-12-14T15:11:58;6.20;86.20
53268;DHT22;39156;51.176;6.738;2023-12-14T15:14:24;6.10;86.00
53268;DHT22;39156;51.176;6.738;2023-12-14T15:16:50;6.10;86.00
53268;DHT22;39156;51.176;6.738;2023-12-14T15:19:15;6.20;86.00
53268;DHT22;39156;51.176;6.738;2023-12-14T15:21:41;6.10;85.90
53268;DHT22;39156;51.176;6.738;2023-12-14T15:24:07;6.10;85.90
53268;DHT22;39156;51.176;6.738;2023-12-14T15:26:33;6.00;85.70
53268;DHT22;39156;51.176;6.738;2023-12-14T15:28:58;6.00;86.30
53268;DHT22;39156;51.176;6.738;2023-12-14T15:31:24;6.00;85.80
53268;DHT22;39156;51.176;6.738;2023-12-14T15:33:50;6.10;85.90
53268;DHT22;39156;51.176;6.738;2023-12-14T15:36:15;6.00;85.80
53268;DHT22;39156;51.176;6.738;2023-12-14T15:38:41;6.10;86.00
53268;DHT22;39156;51.176;6.738;2023-12-14T15:41:14;6.10;85.80
53268;DHT22;39156;51.176;6.738;2023-12-14T15:43:41;6.10;85.90
53268;DHT22;39156;51.176;6.738;2023-12-14T15:46:06;6.40;85.80